sensor_id;sensor_type;location;lat;lon;timestamp;pressure;altitude;pressure_sealevel;temperature;humidity
25238;BME280;13185;50.872;5.306;2023-04-19T00:00:39;102170.06;;;10.25;82.78
25238;BME280;13185;50.872;5.306;2023-04-19T00:03:05;102172.69;;;10.27;82.75
25238;BME280;13185;50.872;5.306;2023-04-19T00:05:30;102169.94;;;10.28;82.85
25238;BME280;13185;50.872;5.306;2023-04-19T00:07:57;102161.88;;;10.28;82.64
25238;BME280;13185;50.872;5.306;2023-04-19T00:10:23;102162.75;;;10.29;82.82
25238;BME280;13185;50.872;5.306;2023-04-19T00:12:48;102163.56;;;10.31;82.78
25238;BME280;13185;50.872;5.306;2023-04-19T00:15:14;102168.88;;;10.32;82.71
25238;BME280;13185;50.872;5.306;2023-04-19T00:17:39;102163.53;;;10.32;82.63
25238;BME280;13185;50.872;5.306;2023-04-19T00:20:06;102168.75;;;10.35;82.80
25238;BME280;13185;50.872;5.306;2023-04-19T00:22:33;102163.53;;;10.32;82.66
25238;BME280;13185;50.872;5.306;2023-04-19T00:24:58;102162.66;;;10.32;82.44
25238;BME280;13185;50.872;5.306;2023-04-19T00:27:24;102157.28;;;10.32;82.81
25238;BME280;13185;50.872;5.306;2023-04-19T00:29:49;102164.41;;;10.33;82.72
25238;BME280;13185;50.872;5.306;2023-04-19T00:32:15;102159.03;;;10.33;82.55
25238;BME280;13185;50.872;5.306;2023-04-19T00:34:41;102159.91;;;10.33;82.66
25238;BME280;13185;50.872;5.306;2023-04-19T00:37:07;102160.88;;;10.31;82.77
25238;BME280;13185;50.872;5.306;2023-04-19T00:39:33;102162.66;;;10.32;82.82
25238;BME280;13185;50.872;5.306;2023-04-19T00:41:58;102151.94;;;10.32;82.88
25238;BME280;13185;50.872;5.306;2023-04-19T00:44:24;102158.19;;;10.31;82.90
25238;BME280;13185;50.872;5.306;2023-04-19T00:46:50;102157.28;;;10.32;83.12
25238;BME280;13185;50.872;5.306;2023-04-19T00:49:16;102153.78;;;10.30;83.04
25238;BME280;13185;50.872;5.306;2023-04-19T00:51:42;102152.91;;;10.29;83.13
25238;BME280;13185;50.872;5.306;2023-04-19T00:54:09;102149.25;;;10.32;82.89
25238;BME280;13185;50.872;5.306;2023-04-19T00:56:35;102156.28;;;10.34;82.81
25238;BME280;13185;50.872;5.306;2023-04-19T00:59:01;102149.09;;;10.35;82.68
25238;BME280;13185;50.872;5.306;2023-04-19T01:01:26;102160.78;;;10.34;82.91
25238;BME280;13185;50.872;5.306;2023-04-19T01:03:53;102146.50;;;10.33;82.77
25238;BME280;13185;50.872;5.306;2023-04-19T01:06:19;102154.53;;;10.33;83.12
25238;BME280;13185;50.872;5.306;2023-04-19T01:08:45;102147.38;;;10.34;82.89
25238;BME280;13185;50.872;5.306;2023-04-19T01:11:10;102148.31;;;10.33;83.01
25238;BME280;13185;50.872;5.306;2023-04-19T01:13:36;102153.66;;;10.33;82.96
25238;BME280;13185;50.872;5.306;2023-04-19T01:16:01;102149.25;;;10.32;83.15
25238;BME280;13185;50.872;5.306;2023-04-19T01:18:27;102151.94;;;10.32;83.16
25238;BME280;13185;50.872;5.306;2023-04-19T01:20:57;102146.56;;;10.32;83.42
25238;BME280;13185;50.872;5.306;2023-04-19T01:23:23;102141.13;;;10.33;83.22
25238;BME280;13185;50.872;5.306;2023-04-19T01:25:49;102144.69;;;10.34;83.08
25238;BME280;13185;50.872;5.306;2023-04-19T01:28:14;102138.31;;;10.36;83.16
25238;BME280;13185;50.872;5.306;2023-04-19T01:30:40;102140.03;;;10.37;83.08
25238;BME280;13185;50.872;5.306;2023-04-19T01:33:06;102134.69;;;10.37;83.07
25238;BME280;13185;50.872;5.306;2023-04-19T01:35:31;102132.88;;;10.38;83.21
25238;BME280;13185;50.872;5.306;2023-04-19T01:37:57;102136.50;;;10.37;83.20
25238;BME280;13185;50.872;5.306;2023-04-19T01:40:24;102139.97;;;10.39;83.10
25238;BME280;13185;50.872;5.306;2023-04-19T01:42:49;102132.72;;;10.41;83.21
25238;BME280;13185;50.872;5.306;2023-04-19T01:45:15;102127.38;;;10.41;83.10
25238;BME280;13185;50.872;5.306;2023-04-19T01:47:41;102124.69;;;10.41;83.15
25238;BME280;13185;50.872;5.306;2023-04-19T01:50:06;102131.94;;;10.39;83.04
25238;BME280;13185;50.872;5.306;2023-04-19T01:52:34;102124.91;;;10.36;83.47
25238;BME280;13185;50.872;5.306;2023-04-19T01:54:59;102123.09;;;10.37;83.07
25238;BME280;13185;50.872;5.306;2023-04-19T01:57:25;102132.06;;;10.36;83.32
25238;BME280;13185;50.872;5.306;2023-04-19T01:59:52;102123.09;;;10.37;83.45
25238;BME280;13185;50.872;5.306;2023-04-19T02:02:17;102120.34;;;10.38;83.29
25238;BME280;13185;50.872;5.306;2023-04-19T02:04:43;102116.84;;;10.36;83.25
25238;BME280;13185;50.872;5.306;2023-04-19T02:07:08;102120.53;;;10.34;83.34
25238;BME280;13185;50.872;5.306;2023-04-19T02:09:35;102119.69;;;10.33;83.58
25238;BME280;13185;50.872;5.306;2023-04-19T02:12:01;102121.41;;;10.34;83.46
25238;BME280;13185;50.872;5.306;2023-04-19T02:14:27;102122.28;;;10.35;83.46
25238;BME280;13185;50.872;5.306;2023-04-19T02:16:53;102115.97;;;10.36;83.58
25238;BME280;13185;50.872;5.306;2023-04-19T02:19:18;102122.16;;;10.38;83.63
25238;BME280;13185;50.872;5.306;2023-04-19T02:21:44;102123.09;;;10.37;83.72
25238;BME280;13185;50.872;5.306;2023-04-19T02:24:12;102110.63;;;10.36;83.49
25238;BME280;13185;50.872;5.306;2023-04-19T02:26:38;102114.97;;;10.38;83.68
25238;BME280;13185;50.872;5.306;2023-04-19T02:29:04;102115.97;;;10.36;83.75
25238;BME280;13185;50.872;5.306;2023-04-19T02:31:30;102113.31;;;10.36;83.73
25238;BME280;13185;50.872;5.306;2023-04-19T02:33:55;102115.19;;;10.34;83.73
25238;BME280;13185;50.872;5.306;2023-04-19T02:36:21;102118.81;;;10.33;84.15
25238;BME280;13185;50.872;5.306;2023-04-19T02:38:46;102112.56;;;10.32;83.78
25238;BME280;13185;50.872;5.306;2023-04-19T02:41:12;102116.13;;;10.33;83.94
25238;BME280;13185;50.872;5.306;2023-04-19T02:43:37;102108.09;;;10.33;83.88
25238;BME280;13185;50.872;5.306;2023-04-19T02:46:03;102112.50;;;10.34;84.05
25238;BME280;13185;50.872;5.306;2023-04-19T02:48:29;102116.94;;;10.35;83.73
25238;BME280;13185;50.872;5.306;2023-04-19T02:50:54;102120.41;;;10.37;83.81
25238;BME280;13185;50.872;5.306;2023-04-19T02:53:21;102117.56;;;10.40;83.90
25238;BME280;13185;50.872;5.306;2023-04-19T02:55:47;102119.38;;;10.39;83.97
25238;BME280;13185;50.872;5.306;2023-04-19T02:58:16;102114.81;;;10.41;83.79
25238;BME280;13185;50.872;5.306;2023-04-19T03:00:54;102121.03;;;10.44;83.59
25238;BME280;13185;50.872;5.306;2023-04-19T03:03:20;102112.97;;;10.44;83.79
25238;BME280;13185;50.872;5.306;2023-04-19T03:05:46;102106.59;;;10.46;83.76
25238;BME280;13185;50.872;5.306;2023-04-19T03:08:11;102106.66;;;10.45;83.94
25238;BME280;13185;50.872;5.306;2023-04-19T03:10:37;102113.78;;;10.46;83.85
25238;BME280;13185;50.872;5.306;2023-04-19T03:13:03;102107.59;;;10.44;83.66
25238;BME280;13185;50.872;5.306;2023-04-19T03:15:29;102103.31;;;10.39;83.78
25238;BME280;13185;50.872;5.306;2023-04-19T03:17:54;102113.31;;;10.36;83.59
25238;BME280;13185;50.872;5.306;2023-04-19T03:20:21;102106.38;;;10.30;83.60
25238;BME280;13185;50.872;5.306;2023-04-19T03:22:47;102106.75;;;10.23;83.87
25238;BME280;13185;50.872;5.306;2023-04-19T03:25:13;102115.88;;;10.17;83.98
25238;BME280;13185;50.872;5.306;2023-04-19T03:27:42;102108.16;;;10.09;84.32
25238;BME280;13185;50.872;5.306;2023-04-19T03:30:11;102107.56;;;10.03;84.47
25238;BME280;13185;50.872;5.306;2023-04-19T03:32:38;102106.81;;;9.99;84.49
25238;BME280;13185;50.872;5.306;2023-04-19T03:35:05;102098.09;;;9.94;84.75
25238;BME280;13185;50.872;5.306;2023-04-19T03:37:30;102104.53;;;9.90;84.96
25238;BME280;13185;50.872;5.306;2023-04-19T03:39:56;102106.53;;;9.85;85.27
25238;BME280;13185;50.872;5.306;2023-04-19T03:42:27;102103.97;;;9.82;85.51
25238;BME280;13185;50.872;5.306;2023-04-19T03:44:56;102101.47;;;9.77;85.64
25238;BME280;13185;50.872;5.306;2023-04-19T03:47:23;102099.00;;;9.73;85.75
25238;BME280;13185;50.872;5.306;2023-04-19T03:49:50;102098.28;;;9.69;86.11
25238;BME280;13185;50.872;5.306;2023-04-19T03:52:16;102099.31;;;9.65;86.36
25238;BME280;13185;50.872;5.306;2023-04-19T03:54:43;102104.81;;;9.62;86.63
25238;BME280;13185;50.872;5.306;2023-04-19T03:57:20;102096.84;;;9.61;86.47
25238;BME280;13185;50.872;5.306;2023-04-19T03:59:49;102103.22;;;9.57;86.99
25238;BME280;13185;50.872;5.306;2023-04-19T04:02:14;102099.03;;;9.51;87.06
25238;BME280;13185;50.872;5.306;2023-04-19T04:04:42;102100.03;;;9.48;87.04
25238;BME280;13185;50.872;5.306;2023-04-19T04:07:07;102099.25;;;9.45;87.50
25238;BME280;13185;50.872;5.306;2023-04-19T04:09:33;102101.25;;;9.40;87.63
25238;BME280;13185;50.872;5.306;2023-04-19T04:11:58;102107.56;;;9.39;87.57
25238;BME280;13185;50.872;5.306;2023-04-19T04:14:24;102101.34;;;9.37;87.87
25238;BME280;13185;50.872;5.306;2023-04-19T04:16:49;102096.94;;;9.36;88.35
25238;BME280;13185;50.872;5.306;2023-04-19T04:19:16;102104.22;;;9.32;88.56
25238;BME280;13185;50.872;5.306;2023-04-19T04:21:43;102092.66;;;9.32;88.64
25238;BME280;13185;50.872;5.306;2023-04-19T04:24:09;102101.50;;;9.34;88.75
25238;BME280;13185;50.872;5.306;2023-04-19T04:26:55;102101.50;;;9.34;89.02
25238;BME280;13185;50.872;5.306;2023-04-19T04:29:24;102107.66;;;9.36;89.50
25238;BME280;13185;50.872;5.306;2023-04-19T04:31:53;102106.78;;;9.35;89.89
25238;BME280;13185;50.872;5.306;2023-04-19T04:34:23;102119.16;;;9.38;90.33
25238;BME280;13185;50.872;5.306;2023-04-19T04:36:56;102108.44;;;9.38;90.67
25238;BME280;13185;50.872;5.306;2023-04-19T04:39:22;102116.38;;;9.41;90.53
25238;BME280;13185;50.872;5.306;2023-04-19T04:41:48;102120.75;;;9.43;91.12
25238;BME280;13185;50.872;5.306;2023-04-19T04:44:16;102113.56;;;9.44;91.53
25238;BME280;13185;50.872;5.306;2023-04-19T04:46:43;102114.38;;;9.46;91.68
25238;BME280;13185;50.872;5.306;2023-04-19T04:49:11;102115.19;;;9.48;91.66
25238;BME280;13185;50.872;5.306;2023-04-19T04:51:40;102123.13;;;9.51;92.13
25238;BME280;13185;50.872;5.306;2023-04-19T04:54:05;102127.53;;;9.52;92.44
25238;BME280;13185;50.872;5.306;2023-04-19T04:56:32;102123.84;;;9.54;92.44
25238;BME280;13185;50.872;5.306;2023-04-19T04:58:58;102120.25;;;9.55;92.32
25238;BME280;13185;50.872;5.306;2023-04-19T05:01:32;102116.56;;;9.58;92.69
25238;BME280;13185;50.872;5.306;2023-04-19T05:03:57;102120.09;;;9.59;92.93
25238;BME280;13185;50.872;5.306;2023-04-19T05:06:23;102127.97;;;9.63;92.76
25238;BME280;13185;50.872;5.306;2023-04-19T05:08:50;102129.66;;;9.66;92.87
25238;BME280;13185;50.872;5.306;2023-04-19T05:11:26;102122.41;;;9.68;93.06
25238;BME280;13185;50.872;5.306;2023-04-19T05:13:53;102114.34;;;9.69;93.10
25238;BME280;13185;50.872;5.306;2023-04-19T05:16:19;102119.63;;;9.71;93.26
25238;BME280;13185;50.872;5.306;2023-04-19T05:18:46;102131.22;;;9.71;93.62
25238;BME280;13185;50.872;5.306;2023-04-19T05:21:13;102136.44;;;9.74;93.31
25238;BME280;13185;50.872;5.306;2023-04-19T05:23:39;102130.06;;;9.77;93.53
25238;BME280;13185;50.872;5.306;2023-04-19T05:26:05;102128.09;;;9.82;93.23
25238;BME280;13185;50.872;5.306;2023-04-19T05:28:31;102121.00;;;9.81;93.39
25238;BME280;13185;50.872;5.306;2023-04-19T05:31:05;102122.53;;;9.87;93.24
25238;BME280;13185;50.872;5.306;2023-04-19T05:33:37;102117.97;;;9.89;93.63
25238;BME280;13185;50.872;5.306;2023-04-19T05:36:03;102117.94;;;9.90;93.62
25238;BME280;13185;50.872;5.306;2023-04-19T05:38:29;102117.78;;;9.93;93.70
25238;BME280;13185;50.872;5.306;2023-04-19T05:40:57;102119.53;;;9.94;93.79
25238;BME280;13185;50.872;5.306;2023-04-19T05:43:22;102123.97;;;9.95;93.92
25238;BME280;13185;50.872;5.306;2023-04-19T05:45:48;102120.28;;;9.98;94.03
25238;BME280;13185;50.872;5.306;2023-04-19T05:48:13;102115.66;;;10.01;93.92
25238;BME280;13185;50.872;5.306;2023-04-19T05:51:02;102122.78;;;10.02;93.86
25238;BME280;13185;50.872;5.306;2023-04-19T05:53:46;102118.16;;;10.06;93.87
25238;BME280;13185;50.872;5.306;2023-04-19T05:56:12;102117.06;;;10.10;93.89
25238;BME280;13185;50.872;5.306;2023-04-19T05:58:37;102117.03;;;10.11;93.73
25238;BME280;13185;50.872;5.306;2023-04-19T06:01:03;102123.97;;;10.16;93.69
25238;BME280;13185;50.872;5.306;2023-04-19T06:03:29;102117.63;;;10.18;93.74
25238;BME280;13185;50.872;5.306;2023-04-19T06:05:55;102115.72;;;10.22;93.36
25238;BME280;13185;50.872;5.306;2023-04-19T06:08:20;102114.56;;;10.27;93.75
25238;BME280;13185;50.872;5.306;2023-04-19T06:10:46;102110.75;;;10.33;93.35
25238;BME280;13185;50.872;5.306;2023-04-19T06:13:14;102112.34;;;10.37;93.05
25238;BME280;13185;50.872;5.306;2023-04-19T06:15:41;102124.69;;;10.41;92.75
25238;BME280;13185;50.872;5.306;2023-04-19T06:18:06;102116.53;;;10.44;92.63
25238;BME280;13185;50.872;5.306;2023-04-19T06:20:38;102112.81;;;10.47;92.50
25238;BME280;13185;50.872;5.306;2023-04-19T06:23:04;102118.03;;;10.50;92.56
25238;BME280;13185;50.872;5.306;2023-04-19T06:25:30;102127.75;;;10.52;92.36
25238;BME280;13185;50.872;5.306;2023-04-19T06:27:56;102115.09;;;10.56;92.15
25238;BME280;13185;50.872;5.306;2023-04-19T06:30:21;102116.63;;;10.61;92.07
25238;BME280;13185;50.872;5.306;2023-04-19T06:32:47;102123.53;;;10.67;91.95
25238;BME280;13185;50.872;5.306;2023-04-19T06:35:13;102122.38;;;10.73;91.73
25238;BME280;13185;50.872;5.306;2023-04-19T06:37:39;102113.25;;;10.77;91.25
25238;BME280;13185;50.872;5.306;2023-04-19T06:40:05;102112.25;;;10.79;90.74
25238;BME280;13185;50.872;5.306;2023-04-19T06:42:36;102107.59;;;10.83;90.48
25238;BME280;13185;50.872;5.306;2023-04-19T06:45:02;102112.75;;;10.87;90.20
25238;BME280;13185;50.872;5.306;2023-04-19T06:47:28;102107.09;;;10.93;90.35
25238;BME280;13185;50.872;5.306;2023-04-19T06:49:54;102112.97;;;11.02;90.46
25238;BME280;13185;50.872;5.306;2023-04-19T06:52:20;102113.34;;;11.13;89.89
25238;BME280;13185;50.872;5.306;2023-04-19T06:54:49;102122.72;;;11.23;89.81
25238;BME280;13185;50.872;5.306;2023-04-19T06:57:16;102107.03;;;11.33;89.29
25238;BME280;13185;50.872;5.306;2023-04-19T06:59:42;102113.06;;;11.38;88.40
25238;BME280;13185;50.872;5.306;2023-04-19T07:02:08;102114.66;;;11.42;87.89
25238;BME280;13185;50.872;5.306;2023-04-19T07:04:33;102116.03;;;11.50;87.62
25238;BME280;13185;50.872;5.306;2023-04-19T07:06:59;102115.66;;;11.58;87.37
25238;BME280;13185;50.872;5.306;2023-04-19T07:09:25;102115.25;;;11.66;87.20
25238;BME280;13185;50.872;5.306;2023-04-19T07:11:50;102112.53;;;11.67;86.16
25238;BME280;13185;50.872;5.306;2023-04-19T07:14:16;102114.81;;;11.75;86.58
25238;BME280;13185;50.872;5.306;2023-04-19T07:16:44;102115.75;;;11.93;86.42
25238;BME280;13185;50.872;5.306;2023-04-19T07:19:10;102110.78;;;12.02;85.19
25238;BME280;13185;50.872;5.306;2023-04-19T07:21:35;102113.28;;;12.05;83.96
25238;BME280;13185;50.872;5.306;2023-04-19T07:24:03;102115.28;;;12.02;82.87
25238;BME280;13185;50.872;5.306;2023-04-19T07:26:29;102118.19;;;11.97;81.89
25238;BME280;13185;50.872;5.306;2023-04-19T07:28:54;102115.75;;;11.93;80.82
25238;BME280;13185;50.872;5.306;2023-04-19T07:31:21;102111.00;;;11.98;81.66
25238;BME280;13185;50.872;5.306;2023-04-19T07:33:46;102115.81;;;12.08;81.41
25238;BME280;13185;50.872;5.306;2023-04-19T07:36:12;102119.72;;;12.20;80.64
25238;BME280;13185;50.872;5.306;2023-04-19T07:38:38;102117.09;;;12.36;81.07
25238;BME280;13185;50.872;5.306;2023-04-19T07:41:04;102125.25;;;12.52;80.34
25238;BME280;13185;50.872;5.306;2023-04-19T07:43:30;102114.13;;;12.58;79.54
25238;BME280;13185;50.872;5.306;2023-04-19T07:45:55;102117.78;;;12.57;79.31
25238;BME280;13185;50.872;5.306;2023-04-19T07:48:21;102123.06;;;12.58;79.25
25238;BME280;13185;50.872;5.306;2023-04-19T07:50:47;102119.59;;;12.56;78.88
25238;BME280;13185;50.872;5.306;2023-04-19T07:53:13;102117.94;;;12.54;79.01
25238;BME280;13185;50.872;5.306;2023-04-19T07:55:38;102116.50;;;12.64;78.57
25238;BME280;13185;50.872;5.306;2023-04-19T07:58:03;102116.81;;;12.75;77.58
25238;BME280;13185;50.872;5.306;2023-04-19T08:00:29;102109.41;;;12.79;77.36
25238;BME280;13185;50.872;5.306;2023-04-19T08:02:55;102114.72;;;12.80;77.03
25238;BME280;13185;50.872;5.306;2023-04-19T08:05:23;102103.72;;;12.85;77.68
25238;BME280;13185;50.872;5.306;2023-04-19T08:07:50;102098.25;;;12.86;76.93
25238;BME280;13185;50.872;5.306;2023-04-19T08:10:17;102095.28;;;12.91;77.76
25238;BME280;13185;50.872;5.306;2023-04-19T08:12:42;102096.00;;;12.94;76.46
25238;BME280;13185;50.872;5.306;2023-04-19T08:15:08;102104.19;;;12.93;77.02
25238;BME280;13185;50.872;5.306;2023-04-19T08:17:34;102102.09;;;12.98;77.31
25238;BME280;13185;50.872;5.306;2023-04-19T08:19:59;102100.06;;;13.01;77.46
25238;BME280;13185;50.872;5.306;2023-04-19T08:22:25;102103.31;;;13.08;75.82
25238;BME280;13185;50.872;5.306;2023-04-19T08:24:51;102100.44;;;13.11;75.66
25238;BME280;13185;50.872;5.306;2023-04-19T08:27:17;102101.47;;;13.09;75.24
25238;BME280;13185;50.872;5.306;2023-04-19T08:29:43;102098.00;;;13.07;75.42
25238;BME280;13185;50.872;5.306;2023-04-19T08:32:10;102091.41;;;13.12;74.80
25238;BME280;13185;50.872;5.306;2023-04-19T08:34:38;102088.47;;;13.17;74.23
25238;BME280;13185;50.872;5.306;2023-04-19T08:37:04;102086.72;;;13.16;73.66
25238;BME280;13185;50.872;5.306;2023-04-19T08:39:31;102094.97;;;13.13;72.39
25238;BME280;13185;50.872;5.306;2023-04-19T08:42:03;102094.19;;;13.11;72.04
25238;BME280;13185;50.872;5.306;2023-04-19T08:44:30;102090.72;;;13.09;71.87
25238;BME280;13185;50.872;5.306;2023-04-19T08:46:57;102082.44;;;13.12;72.36
25238;BME280;13185;50.872;5.306;2023-04-19T08:49:23;102075.97;;;13.16;71.35
25238;BME280;13185;50.872;5.306;2023-04-19T08:51:49;102078.75;;;13.30;71.70
25238;BME280;13185;50.872;5.306;2023-04-19T08:54:15;102082.06;;;13.35;70.42
25238;BME280;13185;50.872;5.306;2023-04-19T08:56:42;102081.22;;;13.35;70.02
25238;BME280;13185;50.872;5.306;2023-04-19T08:59:07;102077.38;;;13.39;70.40
25238;BME280;13185;50.872;5.306;2023-04-19T09:01:33;102073.19;;;13.49;70.12
25238;BME280;13185;50.872;5.306;2023-04-19T09:03:58;102070.56;;;13.63;69.75
25238;BME280;13185;50.872;5.306;2023-04-19T09:06:24;102066.91;;;13.64;68.02
25238;BME280;13185;50.872;5.306;2023-04-19T09:08:51;102065.16;;;13.63;68.45
25238;BME280;13185;50.872;5.306;2023-04-19T09:11:35;102064.81;;;13.69;68.21
25238;BME280;13185;50.872;5.306;2023-04-19T09:14:08;102059.94;;;13.76;69.29
25238;BME280;13185;50.872;5.306;2023-04-19T09:16:34;102052.53;;;13.79;66.64
25238;BME280;13185;50.872;5.306;2023-04-19T09:19:01;102055.22;;;13.79;66.07
25238;BME280;13185;50.872;5.306;2023-04-19T09:21:31;102052.53;;;13.79;66.21
25238;BME280;13185;50.872;5.306;2023-04-19T09:23:58;102058.88;;;13.78;64.79
25238;BME280;13185;50.872;5.306;2023-04-19T09:26:24;102048.78;;;13.82;66.44
25238;BME280;13185;50.872;5.306;2023-04-19T09:29:04;102052.56;;;13.94;66.80
25238;BME280;13185;50.872;5.306;2023-04-19T09:31:31;102050.81;;;13.93;64.17
25238;BME280;13185;50.872;5.306;2023-04-19T09:34:11;102058.72;;;13.96;64.68
25238;BME280;13185;50.872;5.306;2023-04-19T09:36:38;102054.19;;;13.96;64.37
25238;BME280;13185;50.872;5.306;2023-04-19T09:39:03;102054.63;;;14.04;64.15
25238;BME280;13185;50.872;5.306;2023-04-19T09:41:30;102049.53;;;14.14;64.89
25238;BME280;13185;50.872;5.306;2023-04-19T09:44:09;102047.59;;;14.16;64.59
25238;BME280;13185;50.872;5.306;2023-04-19T09:46:36;102039.25;;;14.21;65.32
25238;BME280;13185;50.872;5.306;2023-04-19T09:51:51;102028.75;;;14.30;65.01
25238;BME280;13185;50.872;5.306;2023-04-19T09:54:18;102022.78;;;14.39;nan
25238;BME280;13185;50.872;5.306;2023-04-19T09:56:45;102028.50;;;14.49;65.64
25238;BME280;13185;50.872;5.306;2023-04-19T09:59:11;102026.84;;;14.75;64.84
25238;BME280;13185;50.872;5.306;2023-04-19T10:01:42;102032.16;;;14.77;63.36
25238;BME280;13185;50.872;5.306;2023-04-19T10:04:10;102027.72;;;14.76;63.88
25238;BME280;13185;50.872;5.306;2023-04-19T10:06:38;102024.44;;;14.85;63.27
25238;BME280;13185;50.872;5.306;2023-04-19T10:09:04;102011.03;;;14.83;61.97
25238;BME280;13185;50.872;5.306;2023-04-19T10:11:35;102017.09;;;14.87;59.40
25238;BME280;13185;50.872;5.306;2023-04-19T10:14:09;102015.09;;;14.90;59.29
25238;BME280;13185;50.872;5.306;2023-04-19T10:16:36;102008.72;;;14.91;59.66
25238;BME280;13185;50.872;5.306;2023-04-19T10:19:04;102015.31;;;15.00;58.63
25238;BME280;13185;50.872;5.306;2023-04-19T10:21:30;102018.97;;;15.13;59.83
25238;BME280;13185;50.872;5.306;2023-04-19T10:23:57;102013.84;;;15.23;58.45
25238;BME280;13185;50.872;5.306;2023-04-19T10:26:23;102015.03;;;15.31;56.88
25238;BME280;13185;50.872;5.306;2023-04-19T10:28:49;102013.38;;;15.43;55.63
25238;BME280;13185;50.872;5.306;2023-04-19T10:31:18;102005.31;;;15.56;54.90
25238;BME280;13185;50.872;5.306;2023-04-19T10:33:46;102007.03;;;15.57;51.97
25238;BME280;13185;50.872;5.306;2023-04-19T10:36:14;102000.75;;;15.56;52.85
25238;BME280;13185;50.872;5.306;2023-04-19T10:38:44;102004.44;;;15.55;51.95
25238;BME280;13185;50.872;5.306;2023-04-19T10:41:13;102000.56;;;15.59;51.98
25238;BME280;13185;50.872;5.306;2023-04-19T10:49:12;102001.06;;;15.79;50.28
25238;BME280;13185;50.872;5.306;2023-04-19T10:51:38;102001.19;;;15.77;49.72
25238;BME280;13185;50.872;5.306;2023-04-19T10:57:04;101988.50;;;15.78;49.95
25238;BME280;13185;50.872;5.306;2023-04-19T10:59:32;101978.16;;;15.84;50.58
25238;BME280;13185;50.872;5.306;2023-04-19T11:01:59;101987.13;;;15.85;50.96
25238;BME280;13185;50.872;5.306;2023-04-19T11:07:04;101976.19;;;15.86;49.05
25238;BME280;13185;50.872;5.306;2023-04-19T11:09:38;101975.63;;;15.94;49.11
25238;BME280;13185;50.872;5.306;2023-04-19T11:12:12;101970.38;;;16.05;49.18
25238;BME280;13185;50.872;5.306;2023-04-19T11:14:47;101964.50;;;16.11;48.54
25238;BME280;13185;50.872;5.306;2023-04-19T11:17:20;101971.88;;;16.22;47.08
25238;BME280;13185;50.872;5.306;2023-04-19T11:19:54;101955.84;;;16.19;46.28
25238;BME280;13185;50.872;5.306;2023-04-19T11:22:31;101972.22;;;16.17;45.50
25238;BME280;13185;50.872;5.306;2023-04-19T11:27:35;101949.78;;;16.28;46.71
25238;BME280;13185;50.872;5.306;2023-04-19T11:30:07;101953.78;;;16.23;44.36
25238;BME280;13185;50.872;5.306;2023-04-19T11:32:33;101953.59;;;16.26;45.44
25238;BME280;13185;50.872;5.306;2023-04-19T11:35:07;101946.00;;;16.31;43.10
25238;BME280;13185;50.872;5.306;2023-04-19T11:37:37;101948.47;;;16.34;42.39
25238;BME280;13185;50.872;5.306;2023-04-19T11:40:04;101948.59;;;16.32;42.59
25238;BME280;13185;50.872;5.306;2023-04-19T11:42:31;101943.41;;;16.29;42.21
25238;BME280;13185;50.872;5.306;2023-04-19T11:44:56;101945.34;;;16.27;41.92
25238;BME280;13185;50.872;5.306;2023-04-19T11:47:25;101943.41;;;16.29;40.90
25238;BME280;13185;50.872;5.306;2023-04-19T11:49:50;101938.31;;;16.37;41.64
25238;BME280;13185;50.872;5.306;2023-04-19T11:52:24;101938.59;;;16.45;41.19
25238;BME280;13185;50.872;5.306;2023-04-19T11:54:53;101937.66;;;16.47;41.73
25238;BME280;13185;50.872;5.306;2023-04-19T11:57:28;101935.25;;;16.42;40.89
25238;BME280;13185;50.872;5.306;2023-04-19T12:00:29;101939.47;;;16.46;40.81
25238;BME280;13185;50.872;5.306;2023-04-19T12:02:55;101936.88;;;16.44;38.51
25238;BME280;13185;50.872;5.306;2023-04-19T12:05:22;101934.16;;;16.44;38.15
25238;BME280;13185;50.872;5.306;2023-04-19T12:08:06;101936.00;;;16.44;38.16
25238;BME280;13185;50.872;5.306;2023-04-19T12:10:35;101925.91;;;16.46;38.25
25238;BME280;13185;50.872;5.306;2023-04-19T12:13:01;101927.75;;;16.45;37.20
25238;BME280;13185;50.872;5.306;2023-04-19T12:15:44;101928.44;;;16.49;37.74
25238;BME280;13185;50.872;5.306;2023-04-19T12:18:10;101925.06;;;16.58;36.21
25238;BME280;13185;50.872;5.306;2023-04-19T12:20:36;101930.34;;;16.60;36.15
25238;BME280;13185;50.872;5.306;2023-04-19T12:23:02;101922.22;;;16.60;35.94
25238;BME280;13185;50.872;5.306;2023-04-19T12:25:29;101923.84;;;16.62;36.05
25238;BME280;13185;50.872;5.306;2023-04-19T12:27:55;101933.28;;;16.69;36.48
25238;BME280;13185;50.872;5.306;2023-04-19T12:30:21;101922.72;;;16.78;35.59
25238;BME280;13185;50.872;5.306;2023-04-19T12:32:46;101917.97;;;16.81;34.74
25238;BME280;13185;50.872;5.306;2023-04-19T12:35:12;101909.72;;;16.83;35.36
25238;BME280;13185;50.872;5.306;2023-04-19T12:37:37;101917.72;;;16.84;34.98
25238;BME280;13185;50.872;5.306;2023-04-19T12:40:03;101910.88;;;16.91;35.59
25238;BME280;13185;50.872;5.306;2023-04-19T12:42:29;101916.81;;;16.96;36.09
25238;BME280;13185;50.872;5.306;2023-04-19T12:44:54;101909.34;;;17.00;34.61
25238;BME280;13185;50.872;5.306;2023-04-19T12:47:20;101907.44;;;16.89;34.18
25238;BME280;13185;50.872;5.306;2023-04-19T12:49:45;101904.13;;;16.97;34.32
25238;BME280;13185;50.872;5.306;2023-04-19T12:52:11;101904.78;;;17.00;34.40
25238;BME280;13185;50.872;5.306;2023-04-19T12:54:36;101904.41;;;17.05;32.93
25238;BME280;13185;50.872;5.306;2023-04-19T12:57:02;101901.81;;;17.03;32.82
25238;BME280;13185;50.872;5.306;2023-04-19T12:59:28;101903.56;;;17.05;33.48
25238;BME280;13185;50.872;5.306;2023-04-19T13:01:53;101899.41;;;17.12;33.41
25238;BME280;13185;50.872;5.306;2023-04-19T13:04:19;101906.94;;;17.19;32.73
25238;BME280;13185;50.872;5.306;2023-04-19T13:06:44;101891.56;;;17.20;32.47
25238;BME280;13185;50.872;5.306;2023-04-19T13:09:10;101886.03;;;17.21;32.02